Apostle Islands National Lak, Wisconsin
Current Conditions -  °F | °C
As of 5:53 PM on Sunday 23 Nov 2014 (Local Time) from KASX Reporting Station
Moderate Fog Moderate Fog  
Wind Chill: 37°   Ceiling: 200
Heat Index: 40°   Visibility: 0.25mi
Dew Point: 40°   Wind: 5mph
Humidity: 100%   Direction: 80°E
Pressure: 29.37"   Gusts: NA
Location:  46.8614°N, 90.9101°W
Report Text: KASX 232353Z AUTO 08004KT 1/4SM FG VV002 04/04 A2937 RMK AO2 SLP953 T00440044 10089 20044 58006
Loading
Personal Weather Stations






























Interactive Weather Map New forecast layout! Learn more

10-Day Weather Forecast

Advertisements
Track Severe Weather on mobile